^^
Station Historical Data
Daily Summary for February 13, 2018 Units:  Both    English   Metric
« Previous Day
Next Day »
Daily Weekly Monthly Yearly Custom
  High: Low: Average:
Temperature: TemperatureF °F /  -17.8 °C 63.3 °F /  17.4 °C 67.3 °F /  19.6 °C
Dew Point: DewpointF °F /  -17.8 °C 53.2 °F /  11.8 °C 57.9 °F /  14.4 °C
Humidity: Humidity% 50% 72%
Wind Speed: WindSpeedMPHmph /  0km/h - 4.1mph /  6.6km/h
Wind Gust: WindSpeedGustMPHmph /  0km/h - -
Wind- - East
Pressure: PressureIn in /  0 hPa 29.78 in /  1008.4 hPa -
Precipitation: 0.20 in /  5.08 mm    
Historical Graphs
 
 
Tabular Data for February 13, 2018
Time Temperature Dew Point Pressure Wind Wind Speed Wind Gust Humidity Rainfall Rate (Hourly) solar Conditions
TemperatureF °F /  -17.8 °C DewpointF °F /  -17.8 °C PressureInin /  0hPa Calm     Humidity% HourlyPrecipInin /  0mm SoftwareType W/m2 Conditions
08:29 64.2 °F /  17.9 °C 53.4 °F /  11.9 °C 29.81in /  1009.4hPa NE 10.1mph /  16.3km/h 13.0mph /  20.9km/h 68% 0.00in /  0mm meteobridge W/m2
08:35 63.9 °F /  17.7 °C 54.0 °F /  12.2 °C 29.81in /  1009.4hPa North 13.0mph /  20.9km/h 14.0mph /  22.5km/h 70% 0.00in /  0mm meteobridge W/m2
08:41 63.9 °F /  17.7 °C 54.0 °F /  12.2 °C 29.81in /  1009.4hPa NNE 10.1mph /  16.3km/h 13.0mph /  20.9km/h 70% 0.00in /  0mm meteobridge W/m2
08:47 64.0 °F /  17.8 °C 54.1 °F /  12.3 °C 29.81in /  1009.4hPa North 6.0mph /  9.7km/h 14.0mph /  22.5km/h 70% 0.00in /  0mm meteobridge W/m2
08:53 64.2 °F /  17.9 °C 53.4 °F /  11.9 °C 29.81in /  1009.4hPa NNE 8.9mph /  14.3km/h 12.0mph /  19.3km/h 68% 0.00in /  0mm meteobridge W/m2
08:59 64.6 °F /  18.1 °C 53.4 °F /  11.9 °C 29.81in /  1009.4hPa ENE 10.1mph /  16.3km/h 12.0mph /  19.3km/h 67% 0.00in /  0mm meteobridge W/m2
09:05 64.6 °F /  18.1 °C 54.1 °F /  12.3 °C 29.82in /  1009.7hPa North 2.9mph /  4.7km/h 10.0mph /  16.1km/h 69% 0.00in /  0mm meteobridge W/m2
09:11 64.9 °F /  18.3 °C 53.2 °F /  11.8 °C 29.82in /  1009.7hPa North 2.9mph /  4.7km/h 13.0mph /  20.9km/h 66% 0.00in /  0mm meteobridge W/m2
09:18 65.1 °F /  18.4 °C 54.0 °F /  12.2 °C 29.82in /  1009.7hPa North 6.9mph /  11.1km/h 11.0mph /  17.7km/h 67% 0.00in /  0mm meteobridge W/m2
09:24 65.1 °F /  18.4 °C 54.0 °F /  12.2 °C 29.82in /  1009.7hPa NNE 6.0mph /  9.7km/h 10.0mph /  16.1km/h 67% 0.00in /  0mm meteobridge W/m2
09:30 65.1 °F /  18.4 °C 54.3 °F /  12.4 °C 29.83in /  1010hPa North 10.1mph /  16.3km/h 14.0mph /  22.5km/h 68% 0.00in /  0mm meteobridge W/m2
09:36 65.8 °F /  18.8 °C 54.5 °F /  12.5 °C 29.83in /  1010hPa NNW 8.9mph /  14.3km/h 13.0mph /  20.9km/h 67% 0.00in /  0mm meteobridge W/m2
09:42 66.4 °F /  19.1 °C 55.0 °F /  12.8 °C 29.83in /  1010hPa North 6.0mph /  9.7km/h 13.0mph /  20.9km/h 67% 0.00in /  0mm meteobridge W/m2
09:48 66.6 °F /  19.2 °C 55.6 °F /  13.1 °C 29.83in /  1010hPa NNE 4.0mph /  6.4km/h 11.0mph /  17.7km/h 68% 0.00in /  0mm meteobridge W/m2
09:54 66.7 °F /  19.3 °C 55.8 °F /  13.2 °C 29.83in /  1010hPa North 4.0mph /  6.4km/h 12.0mph /  19.3km/h 68% 0.00in /  0mm meteobridge W/m2
10:00 67.3 °F /  19.6 °C 56.8 °F /  13.8 °C 29.83in /  1010hPa NNE 6.0mph /  9.7km/h 6.0mph /  9.7km/h 69% 0.00in /  0mm meteobridge W/m2
10:06 67.8 °F /  19.9 °C 56.8 °F /  13.8 °C 29.83in /  1010hPa North 8.9mph /  14.3km/h 11.0mph /  17.7km/h 68% 0.00in /  0mm meteobridge W/m2
10:13 68.4 °F /  20.2 °C 57.0 °F /  13.9 °C 29.83in /  1010hPa NNE 6.0mph /  9.7km/h 9.0mph /  14.5km/h 67% 0.00in /  0mm meteobridge W/m2
10:19 68.9 °F /  20.5 °C 57.0 °F /  13.9 °C 29.83in /  1010hPa NNE 6.0mph /  9.7km/h 12.0mph /  19.3km/h 66% 0.00in /  0mm meteobridge W/m2
10:25 69.6 °F /  20.9 °C 57.7 °F /  14.3 °C 29.83in /  1010hPa NE 2.9mph /  4.7km/h 4.0mph /  6.4km/h 66% 0.00in /  0mm meteobridge W/m2
10:31 70.2 °F /  21.2 °C 57.4 °F /  14.1 °C 29.83in /  1010hPa North 4.0mph /  6.4km/h 10.0mph /  16.1km/h 64% 0.00in /  0mm meteobridge W/m2
10:37 70.9 °F /  21.6 °C 58.1 °F /  14.5 °C 29.83in /  1010hPa NE 6.0mph /  9.7km/h 9.0mph /  14.5km/h 64% 0.00in /  0mm meteobridge W/m2
10:43 72.1 °F /  22.3 °C 58.5 °F /  14.7 °C 29.83in /  1010hPa NNE 11.0mph /  17.7km/h 11.0mph /  17.7km/h 62% 0.00in /  0mm meteobridge W/m2
10:52 71.6 °F /  22 °C 57.9 °F /  14.4 °C 29.82in /  1009.7hPa NNE 12.1mph /  19.5km/h 15.0mph /  24.1km/h 62% 0.00in /  0mm meteobridge W/m2
10:57 70.2 °F /  21.2 °C 57.9 °F /  14.4 °C 29.82in /  1009.7hPa ENE 4.0mph /  6.4km/h 13.0mph /  20.9km/h 65% 0.00in /  0mm meteobridge W/m2
11:03 70.0 °F /  21.1 °C 58.1 °F /  14.5 °C 29.82in /  1009.7hPa North 10.1mph /  16.3km/h 18.0mph /  29km/h 66% 0.00in /  0mm meteobridge W/m2
11:10 69.4 °F /  20.8 °C 57.9 °F /  14.4 °C 29.83in /  1010hPa North 15.0mph /  24.1km/h 17.0mph /  27.4km/h 67% 0.00in /  0mm meteobridge W/m2
11:16 69.4 °F /  20.8 °C 58.5 °F /  14.7 °C 29.83in /  1010hPa NNW 8.9mph /  14.3km/h 14.0mph /  22.5km/h 68% 0.00in /  0mm meteobridge W/m2
11:22 70.0 °F /  21.1 °C 59.0 °F /  15 °C 29.83in /  1010hPa NNE 6.9mph /  11.1km/h 15.0mph /  24.1km/h 68% 0.00in /  0mm meteobridge W/m2
11:28 71.2 °F /  21.8 °C 59.4 °F /  15.2 °C 29.83in /  1010hPa North 14.1mph /  22.7km/h 16.0mph /  25.7km/h 66% 0.00in /  0mm meteobridge W/m2
11:34 70.5 °F /  21.4 °C 59.0 °F /  15 °C 29.83in /  1010hPa North 8.1mph /  13km/h 12.0mph /  19.3km/h 67% 0.00in /  0mm meteobridge W/m2
11:40 70.0 °F /  21.1 °C 59.0 °F /  15 °C 29.83in /  1010hPa NNW 8.9mph /  14.3km/h 13.0mph /  20.9km/h 68% 0.00in /  0mm meteobridge W/m2
11:46 69.6 °F /  20.9 °C 58.6 °F /  14.8 °C 29.83in /  1010hPa NNE 10.1mph /  16.3km/h 13.0mph /  20.9km/h 68% 0.00in /  0mm meteobridge W/m2
11:52 69.3 °F /  20.7 °C 58.6 °F /  14.8 °C 29.83in /  1010hPa North 2.9mph /  4.7km/h 13.0mph /  20.9km/h 69% 0.00in /  0mm meteobridge W/m2
11:58 69.6 °F /  20.9 °C 58.6 °F /  14.8 °C 29.83in /  1010hPa NNE 8.9mph /  14.3km/h 18.0mph /  29km/h 68% 0.00in /  0mm meteobridge W/m2
12:04 69.8 °F /  21 °C 58.8 °F /  14.9 °C 29.83in /  1010hPa NNE 4.9mph /  7.9km/h 13.0mph /  20.9km/h 68% 0.00in /  0mm meteobridge W/m2
12:10 69.4 °F /  20.8 °C 58.8 °F /  14.9 °C 29.82in /  1009.7hPa North 2.9mph /  4.7km/h 6.0mph /  9.7km/h 69% 0.00in /  0mm meteobridge W/m2
12:16 69.6 °F /  20.9 °C 57.7 °F /  14.3 °C 29.83in /  1010hPa NNE 4.9mph /  7.9km/h 13.0mph /  20.9km/h 66% 0.00in /  0mm meteobridge W/m2
12:22 70.2 °F /  21.2 °C 58.3 °F /  14.6 °C 29.82in /  1009.7hPa NNE 6.9mph /  11.1km/h 10.0mph /  16.1km/h 66% 0.00in /  0mm meteobridge W/m2
12:29 69.6 °F /  20.9 °C 57.7 °F /  14.3 °C 29.82in /  1009.7hPa NE 4.9mph /  7.9km/h 7.0mph /  11.3km/h 66% 0.00in /  0mm meteobridge W/m2
12:35 69.4 °F /  20.8 °C 58.5 °F /  14.7 °C 29.82in /  1009.7hPa NE 4.0mph /  6.4km/h 7.0mph /  11.3km/h 68% 0.00in /  0mm meteobridge W/m2
12:41 70.2 °F /  21.2 °C 57.9 °F /  14.4 °C 29.83in /  1010hPa NNE 10.1mph /  16.3km/h 11.0mph /  17.7km/h 65% 0.00in /  0mm meteobridge W/m2
12:47 70.5 °F /  21.4 °C 56.8 °F /  13.8 °C 29.83in /  1010hPa Calm   6.0mph /  9.7km/h 62% 0.00in /  0mm meteobridge W/m2
12:53 71.6 °F /  22 °C 58.8 °F /  14.9 °C 29.83in /  1010hPa NE 2.0mph /  3.2km/h 4.0mph /  6.4km/h 64% 0.00in /  0mm meteobridge W/m2
12:59 72.3 °F /  22.4 °C 57.7 °F /  14.3 °C 29.82in /  1009.7hPa NNE 8.9mph /  14.3km/h 9.0mph /  14.5km/h 60% 0.00in /  0mm meteobridge W/m2
13:05 73.0 °F /  22.8 °C 57.4 °F /  14.1 °C 29.81in /  1009.4hPa NNE 6.0mph /  9.7km/h 9.0mph /  14.5km/h 58% 0.00in /  0mm meteobridge W/m2
13:11 74.7 °F /  23.7 °C 58.8 °F /  14.9 °C 29.81in /  1009.4hPa NNE 12.1mph /  19.5km/h 14.0mph /  22.5km/h 58% 0.00in /  0mm meteobridge W/m2
13:17 75.0 °F /  23.9 °C 57.7 °F /  14.3 °C 29.82in /  1009.7hPa North 4.9mph /  7.9km/h 10.0mph /  16.1km/h 55% 0.00in /  0mm meteobridge W/m2
13:24 75.0 °F /  23.9 °C 57.7 °F /  14.3 °C 29.81in /  1009.4hPa North 6.9mph /  11.1km/h 13.0mph /  20.9km/h 55% 0.00in /  0mm meteobridge W/m2
13:42 77.7 °F /  25.4 °C 58.1 °F /  14.5 °C 29.80in /  1009hPa NE 6.0mph /  9.7km/h 7.0mph /  11.3km/h 51% 0.00in /  0mm meteobridge W/m2
13:48 78.6 °F /  25.9 °C 58.5 °F /  14.7 °C 29.79in /  1008.7hPa NNE 4.9mph /  7.9km/h 9.0mph /  14.5km/h 50% 0.00in /  0mm meteobridge W/m2
13:54 77.9 °F /  25.5 °C 57.7 °F /  14.3 °C 29.79in /  1008.7hPa North 8.9mph /  14.3km/h 12.0mph /  19.3km/h 50% 0.00in /  0mm meteobridge W/m2
14:01 76.5 °F /  24.7 °C 56.5 °F /  13.6 °C 29.79in /  1008.7hPa NNE 0.9mph /  1.4km/h 5.0mph /  8km/h 50% 0.00in /  0mm meteobridge W/m2
14:07 76.6 °F /  24.8 °C 56.7 °F /  13.7 °C 29.79in /  1008.7hPa NE 2.0mph /  3.2km/h 4.0mph /  6.4km/h 50% 0.00in /  0mm meteobridge W/m2
14:13 76.5 °F /  24.7 °C 56.5 °F /  13.6 °C 29.79in /  1008.7hPa ENE 4.0mph /  6.4km/h 10.0mph /  16.1km/h 50% 0.00in /  0mm meteobridge W/m2
14:19 75.2 °F /  24 °C 55.8 °F /  13.2 °C 29.79in /  1008.7hPa NE 4.0mph /  6.4km/h 7.0mph /  11.3km/h 51% 0.00in /  0mm meteobridge W/m2
14:25 74.5 °F /  23.6 °C 57.2 °F /  14 °C 29.78in /  1008.4hPa NE 6.9mph /  11.1km/h 12.0mph /  19.3km/h 55% 0.00in /  0mm meteobridge W/m2
14:31 73.8 °F /  23.2 °C 57.0 °F /  13.9 °C 29.78in /  1008.4hPa NNW 0.9mph /  1.4km/h 13.0mph /  20.9km/h 56% 0.00in /  0mm meteobridge W/m2
14:37 72.5 °F /  22.5 °C 58.3 °F /  14.6 °C 29.79in /  1008.7hPa SE 0.9mph /  1.4km/h 4.0mph /  6.4km/h 61% 0.02in /  0.51mm meteobridge W/m2
14:43 69.1 °F /  20.6 °C 59.4 °F /  15.2 °C 29.80in /  1009hPa SSE 4.9mph /  7.9km/h 6.0mph /  9.7km/h 71% 0.06in /  1.52mm meteobridge W/m2
14:50 66.6 °F /  19.2 °C 59.2 °F /  15.1 °C 29.81in /  1009.4hPa SE 2.9mph /  4.7km/h 3.0mph /  4.8km/h 77% 0.07in /  1.78mm meteobridge W/m2
14:56 65.1 °F /  18.4 °C 58.8 °F /  14.9 °C 29.80in /  1009hPa SE 0.9mph /  1.4km/h 3.0mph /  4.8km/h 80% 0.10in /  2.54mm meteobridge W/m2
15:02 64.0 °F /  17.8 °C 58.5 °F /  14.7 °C 29.80in /  1009hPa North 11.0mph /  17.7km/h 13.0mph /  20.9km/h 82% 0.16in /  4.06mm meteobridge W/m2
15:08 63.5 °F /  17.5 °C 58.3 °F /  14.6 °C 29.80in /  1009hPa NNE 2.0mph /  3.2km/h 7.0mph /  11.3km/h 83% 0.18in /  4.57mm meteobridge W/m2
15:14 63.3 °F /  17.4 °C 58.8 °F /  14.9 °C 29.80in /  1009hPa NNE 4.0mph /  6.4km/h 4.0mph /  6.4km/h 85% 0.19in /  4.83mm meteobridge W/m2
15:20 63.3 °F /  17.4 °C 59.0 °F /  15 °C 29.80in /  1009hPa Calm     86% 0.20in /  5.08mm meteobridge W/m2
15:27 63.7 °F /  17.6 °C 59.7 °F /  15.4 °C 29.80in /  1009hPa Calm   2.0mph /  3.2km/h 87% 0.20in /  5.08mm meteobridge W/m2
15:33 63.3 °F /  17.4 °C 59.4 °F /  15.2 °C 29.81in /  1009.4hPa Calm   2.0mph /  3.2km/h 87% 0.20in /  5.08mm meteobridge W/m2
15:39 63.5 °F /  17.5 °C 59.5 °F /  15.3 °C 29.81in /  1009.4hPa Calm     87% 0.17in /  4.32mm meteobridge W/m2
15:45 63.9 °F /  17.7 °C 59.9 °F /  15.5 °C 29.80in /  1009hPa Calm     87% 0.15in /  3.81mm meteobridge W/m2
15:51 63.9 °F /  17.7 °C 60.3 °F /  15.7 °C 29.80in /  1009hPa Calm     88% 0.12in /  3.05mm meteobridge W/m2
15:57 63.7 °F /  17.6 °C 60.1 °F /  15.6 °C 29.80in /  1009hPa Calm     88% 0.07in /  1.78mm meteobridge W/m2
16:03 63.9 °F /  17.7 °C 60.3 °F /  15.7 °C 29.81in /  1009.4hPa Calm   2.0mph /  3.2km/h 88% 0.04in /  1.02mm meteobridge W/m2
16:09 64.0 °F /  17.8 °C 60.4 °F /  15.8 °C 29.81in /  1009.4hPa NE 2.0mph /  3.2km/h 3.0mph /  4.8km/h 88% 0.02in /  0.51mm meteobridge W/m2
16:16 64.0 °F /  17.8 °C 60.8 °F /  16 °C 29.81in /  1009.4hPa Calm     89% 0.01in /  0.25mm meteobridge W/m2
16:22 64.0 °F /  17.8 °C 60.4 °F /  15.8 °C 29.81in /  1009.4hPa Calm     88% 0.00in /  0mm meteobridge W/m2
16:28 63.9 °F /  17.7 °C 60.3 °F /  15.7 °C 29.81in /  1009.4hPa Calm   1.0mph /  1.6km/h 88% 0.00in /  0mm meteobridge W/m2
16:34 63.9 °F /  17.7 °C 60.3 °F /  15.7 °C 29.81in /  1009.4hPa Calm     88% 0.00in /  0mm meteobridge W/m2
16:40 64.0 °F /  17.8 °C 60.4 °F /  15.8 °C 29.82in /  1009.7hPa NE 0.9mph /  1.4km/h 2.0mph /  3.2km/h 88% 0.00in /  0mm meteobridge W/m2
16:46 64.4 °F /  18 °C 61.2 °F /  16.2 °C 29.83in /  1010hPa SSE 0.9mph /  1.4km/h 3.0mph /  4.8km/h 89% 0.00in /  0mm meteobridge W/m2
16:53 64.6 °F /  18.1 °C 61.3 °F /  16.3 °C 29.82in /  1009.7hPa Calm   2.0mph /  3.2km/h 89% 0.00in /  0mm meteobridge W/m2
16:59 64.2 °F /  17.9 °C 61.0 °F /  16.1 °C 29.82in /  1009.7hPa SSE 2.0mph /  3.2km/h 3.0mph /  4.8km/h 89% 0.00in /  0mm meteobridge W/m2
17:05 64.2 °F /  17.9 °C 61.0 °F /  16.1 °C 29.82in /  1009.7hPa SSE 2.9mph /  4.7km/h 3.0mph /  4.8km/h 89% 0.00in /  0mm meteobridge W/m2
17:12 64.2 °F /  17.9 °C 60.6 °F /  15.9 °C 29.82in /  1009.7hPa SSE 2.0mph /  3.2km/h 2.0mph /  3.2km/h 88% 0.00in /  0mm meteobridge W/m2
17:18 64.2 °F /  17.9 °C 60.6 °F /  15.9 °C 29.82in /  1009.7hPa Calm     88% 0.00in /  0mm meteobridge W/m2
17:24 64.2 °F /  17.9 °C 60.6 °F /  15.9 °C 29.82in /  1009.7hPa Calm     88% 0.00in /  0mm meteobridge W/m2
17:31 64.0 °F /  17.8 °C 60.1 °F /  15.6 °C 29.81in /  1009.4hPa Calm     87% 0.00in /  0mm meteobridge W/m2
17:37 64.6 °F /  18.1 °C 61.0 °F /  16.1 °C 29.81in /  1009.4hPa Calm     88% 0.00in /  0mm meteobridge W/m2
17:43 64.8 °F /  18.2 °C 61.2 °F /  16.2 °C 29.82in /  1009.7hPa NE 8.9mph /  14.3km/h 9.0mph /  14.5km/h 88% 0.00in /  0mm meteobridge W/m2
17:49 64.6 °F /  18.1 °C 60.6 °F /  15.9 °C 29.82in /  1009.7hPa Calm   3.0mph /  4.8km/h 87% 0.00in /  0mm meteobridge W/m2
17:55 64.6 °F /  18.1 °C 60.3 °F /  15.7 °C 29.82in /  1009.7hPa Calm   3.0mph /  4.8km/h 86% 0.00in /  0mm meteobridge W/m2
18:02 64.6 °F /  18.1 °C 59.9 °F /  15.5 °C 29.82in /  1009.7hPa Calm     85% 0.00in /  0mm meteobridge W/m2
18:08 64.8 °F /  18.2 °C 59.9 °F /  15.5 °C 29.82in /  1009.7hPa Calm     84% 0.00in /  0mm meteobridge W/m2
18:14 64.9 °F /  18.3 °C 59.4 °F /  15.2 °C 29.82in /  1009.7hPa Calm   1.0mph /  1.6km/h 82% 0.00in /  0mm meteobridge W/m2
18:21 65.1 °F /  18.4 °C 58.8 °F /  14.9 °C 29.82in /  1009.7hPa Calm     80% 0.00in /  0mm meteobridge W/m2
18:27 65.7 °F /  18.7 °C 59.7 °F /  15.4 °C 29.82in /  1009.7hPa East 0.9mph /  1.4km/h 2.0mph /  3.2km/h 81% 0.00in /  0mm meteobridge W/m2
18:33 65.8 °F /  18.8 °C 59.9 °F /  15.5 °C 29.82in /  1009.7hPa SE 0.9mph /  1.4km/h 4.0mph /  6.4km/h 81% 0.00in /  0mm meteobridge W/m2
18:39 65.8 °F /  18.8 °C 60.3 °F /  15.7 °C 29.82in /  1009.7hPa SE 2.0mph /  3.2km/h 3.0mph /  4.8km/h 82% 0.00in /  0mm meteobridge W/m2
18:45 66.0 °F /  18.9 °C 60.1 °F /  15.6 °C 29.83in /  1010hPa Calm     81% 0.00in /  0mm meteobridge W/m2
18:51 66.9 °F /  19.4 °C 61.0 °F /  16.1 °C 29.83in /  1010hPa Calm     81% 0.00in /  0mm meteobridge W/m2
18:58 68.0 °F /  20 °C 61.2 °F /  16.2 °C 29.83in /  1010hPa Calm     79% 0.00in /  0mm meteobridge W/m2
19:04 69.3 °F /  20.7 °C 61.0 °F /  16.1 °C 29.83in /  1010hPa Calm     75% 0.00in /  0mm meteobridge W/m2
19:10 70.2 °F /  21.2 °C 60.3 °F /  15.7 °C 29.82in /  1009.7hPa Calm     71% 0.00in /  0mm meteobridge W/m2
19:16 70.5 °F /  21.4 °C 61.0 °F /  16.1 °C 29.82in /  1009.7hPa Calm     72% 0.00in /  0mm meteobridge W/m2
19:22 70.7 °F /  21.5 °C 61.2 °F /  16.2 °C 29.82in /  1009.7hPa Calm     72% 0.00in /  0mm meteobridge W/m2
19:29 70.7 °F /  21.5 °C 61.2 °F /  16.2 °C 29.82in /  1009.7hPa Calm     72% 0.00in /  0mm meteobridge W/m2
19:35 70.7 °F /  21.5 °C 61.2 °F /  16.2 °C 29.82in /  1009.7hPa Calm   -999.0mph /  -1607.7km/h 72% 0.00in /  0mm meteobridge W/m2
Regenstein, Windhoek, Namibia
Compliments of Weather Underground - 2.5 mb